sensor_id;sensor_type;location;lat;lon;timestamp;P1;durP1;ratioP1;P2;durP2;ratioP2
75167;SDS011;63748;48.088;11.476;2022-11-09T00:02:19;1.40;;;0.90;;
75167;SDS011;63748;48.088;11.476;2022-11-09T00:04:46;1.10;;;0.80;;
75167;SDS011;63748;48.088;11.476;2022-11-09T00:07:12;1.95;;;1.30;;
75167;SDS011;63748;48.088;11.476;2022-11-09T00:09:38;1.80;;;1.10;;
75167;SDS011;63748;48.088;11.476;2022-11-09T00:12:04;1.70;;;0.90;;
75167;SDS011;63748;48.088;11.476;2022-11-09T00:14:31;1.83;;;0.90;;
75167;SDS011;63748;48.088;11.476;2022-11-09T00:16:57;1.75;;;1.20;;
75167;SDS011;63748;48.088;11.476;2022-11-09T00:19:23;1.73;;;0.93;;
75167;SDS011;63748;48.088;11.476;2022-11-09T00:21:50;3.65;;;1.20;;
75167;SDS011;63748;48.088;11.476;2022-11-09T00:24:16;2.08;;;0.90;;
75167;SDS011;63748;48.088;11.476;2022-11-09T00:26:42;2.90;;;1.02;;
75167;SDS011;63748;48.088;11.476;2022-11-09T00:29:08;0.95;;;0.82;;
75167;SDS011;63748;48.088;11.476;2022-11-09T00:31:34;1.35;;;0.80;;
75167;SDS011;63748;48.088;11.476;2022-11-09T00:34:00;1.15;;;0.70;;
75167;SDS011;63748;48.088;11.476;2022-11-09T00:36:27;1.55;;;0.90;;
75167;SDS011;63748;48.088;11.476;2022-11-09T00:38:57;1.75;;;0.93;;
75167;SDS011;63748;48.088;11.476;2022-11-09T00:41:24;1.83;;;0.90;;
75167;SDS011;63748;48.088;11.476;2022-11-09T00:43:50;1.60;;;0.82;;
75167;SDS011;63748;48.088;11.476;2022-11-09T00:46:17;1.48;;;0.98;;
75167;SDS011;63748;48.088;11.476;2022-11-09T00:48:43;2.58;;;0.90;;
75167;SDS011;63748;48.088;11.476;2022-11-09T00:51:09;1.73;;;0.70;;
75167;SDS011;63748;48.088;11.476;2022-11-09T00:53:35;1.50;;;0.73;;
75167;SDS011;63748;48.088;11.476;2022-11-09T00:56:03;1.08;;;0.90;;
75167;SDS011;63748;48.088;11.476;2022-11-09T00:58:33;1.85;;;0.60;;
75167;SDS011;63748;48.088;11.476;2022-11-09T01:01:04;3.22;;;1.10;;
75167;SDS011;63748;48.088;11.476;2022-11-09T01:03:30;1.20;;;0.60;;
75167;SDS011;63748;48.088;11.476;2022-11-09T01:05:59;1.60;;;0.80;;
75167;SDS011;63748;48.088;11.476;2022-11-09T01:08:25;1.20;;;0.70;;
75167;SDS011;63748;48.088;11.476;2022-11-09T01:10:51;0.73;;;0.52;;
75167;SDS011;63748;48.088;11.476;2022-11-09T01:13:18;0.93;;;0.77;;
75167;SDS011;63748;48.088;11.476;2022-11-09T01:15:45;1.20;;;0.75;;
75167;SDS011;63748;48.088;11.476;2022-11-09T01:18:11;1.52;;;0.63;;
75167;SDS011;63748;48.088;11.476;2022-11-09T01:20:42;0.80;;;0.70;;
75167;SDS011;63748;48.088;11.476;2022-11-09T01:23:08;3.50;;;0.80;;
75167;SDS011;63748;48.088;11.476;2022-11-09T01:25:34;2.28;;;0.82;;
75167;SDS011;63748;48.088;11.476;2022-11-09T01:28:01;1.60;;;0.70;;
75167;SDS011;63748;48.088;11.476;2022-11-09T01:30:27;1.05;;;0.65;;
75167;SDS011;63748;48.088;11.476;2022-11-09T01:32:53;1.98;;;0.95;;
75167;SDS011;63748;48.088;11.476;2022-11-09T01:35:19;4.43;;;0.80;;
75167;SDS011;63748;48.088;11.476;2022-11-09T01:37:45;1.65;;;0.80;;
75167;SDS011;63748;48.088;11.476;2022-11-09T01:40:12;1.75;;;0.90;;
75167;SDS011;63748;48.088;11.476;2022-11-09T01:42:38;1.15;;;0.50;;
75167;SDS011;63748;48.088;11.476;2022-11-09T01:47:43;1.10;;;0.75;;
75167;SDS011;63748;48.088;11.476;2022-11-09T01:50:10;0.75;;;0.60;;
75167;SDS011;63748;48.088;11.476;2022-11-09T01:52:37;2.40;;;0.73;;
75167;SDS011;63748;48.088;11.476;2022-11-09T01:55:06;1.83;;;0.70;;
75167;SDS011;63748;48.088;11.476;2022-11-09T01:57:35;1.30;;;0.60;;
75167;SDS011;63748;48.088;11.476;2022-11-09T02:00:04;0.95;;;0.68;;
75167;SDS011;63748;48.088;11.476;2022-11-09T02:02:31;0.95;;;0.73;;
75167;SDS011;63748;48.088;11.476;2022-11-09T02:05:05;1.08;;;0.70;;
75167;SDS011;63748;48.088;11.476;2022-11-09T02:07:33;2.25;;;0.90;;
75167;SDS011;63748;48.088;11.476;2022-11-09T02:10:02;1.55;;;0.70;;
75167;SDS011;63748;48.088;11.476;2022-11-09T02:12:30;0.95;;;0.70;;
75167;SDS011;63748;48.088;11.476;2022-11-09T02:14:57;0.65;;;0.50;;
75167;SDS011;63748;48.088;11.476;2022-11-09T02:17:24;0.85;;;0.63;;
75167;SDS011;63748;48.088;11.476;2022-11-09T02:19:51;1.02;;;0.63;;
75167;SDS011;63748;48.088;11.476;2022-11-09T02:22:17;1.40;;;0.60;;
75167;SDS011;63748;48.088;11.476;2022-11-09T02:24:43;1.15;;;0.65;;
75167;SDS011;63748;48.088;11.476;2022-11-09T02:27:09;0.90;;;0.60;;
75167;SDS011;63748;48.088;11.476;2022-11-09T02:29:42;1.63;;;0.70;;
75167;SDS011;63748;48.088;11.476;2022-11-09T02:32:10;1.40;;;0.98;;
75167;SDS011;63748;48.088;11.476;2022-11-09T02:34:37;1.15;;;0.60;;
75167;SDS011;63748;48.088;11.476;2022-11-09T02:37:03;0.70;;;0.60;;
75167;SDS011;63748;48.088;11.476;2022-11-09T02:39:29;1.92;;;0.68;;
75167;SDS011;63748;48.088;11.476;2022-11-09T02:41:57;1.20;;;0.65;;
75167;SDS011;63748;48.088;11.476;2022-11-09T02:46:50;1.15;;;0.52;;
75167;SDS011;63748;48.088;11.476;2022-11-09T02:49:16;1.10;;;0.60;;
75167;SDS011;63748;48.088;11.476;2022-11-09T02:51:42;1.52;;;0.70;;
75167;SDS011;63748;48.088;11.476;2022-11-09T02:54:08;1.73;;;0.90;;
75167;SDS011;63748;48.088;11.476;2022-11-09T02:56:34;0.88;;;0.45;;
75167;SDS011;63748;48.088;11.476;2022-11-09T02:59:00;0.90;;;0.57;;
75167;SDS011;63748;48.088;11.476;2022-11-09T03:01:27;1.38;;;0.80;;
75167;SDS011;63748;48.088;11.476;2022-11-09T03:03:53;1.42;;;0.50;;
75167;SDS011;63748;48.088;11.476;2022-11-09T03:06:19;0.95;;;0.50;;
75167;SDS011;63748;48.088;11.476;2022-11-09T03:08:58;1.52;;;0.65;;
75167;SDS011;63748;48.088;11.476;2022-11-09T03:11:24;1.05;;;0.60;;
75167;SDS011;63748;48.088;11.476;2022-11-09T03:13:50;0.98;;;0.75;;
75167;SDS011;63748;48.088;11.476;2022-11-09T03:16:16;1.88;;;0.93;;
75167;SDS011;63748;48.088;11.476;2022-11-09T03:18:42;0.85;;;0.73;;
75167;SDS011;63748;48.088;11.476;2022-11-09T03:21:08;1.30;;;0.60;;
75167;SDS011;63748;48.088;11.476;2022-11-09T03:23:34;0.98;;;0.50;;
75167;SDS011;63748;48.088;11.476;2022-11-09T03:26:00;1.48;;;0.45;;
75167;SDS011;63748;48.088;11.476;2022-11-09T03:28:26;3.00;;;0.82;;
75167;SDS011;63748;48.088;11.476;2022-11-09T03:30:53;1.70;;;0.73;;
75167;SDS011;63748;48.088;11.476;2022-11-09T03:33:19;0.45;;;0.45;;
75167;SDS011;63748;48.088;11.476;2022-11-09T03:35:46;1.13;;;0.63;;
75167;SDS011;63748;48.088;11.476;2022-11-09T03:38:12;1.77;;;0.50;;
75167;SDS011;63748;48.088;11.476;2022-11-09T03:40:38;2.20;;;0.52;;
75167;SDS011;63748;48.088;11.476;2022-11-09T03:43:04;1.33;;;0.50;;
75167;SDS011;63748;48.088;11.476;2022-11-09T03:45:30;1.15;;;0.57;;
75167;SDS011;63748;48.088;11.476;2022-11-09T03:47:57;1.15;;;0.55;;
75167;SDS011;63748;48.088;11.476;2022-11-09T03:50:25;1.48;;;0.68;;
75167;SDS011;63748;48.088;11.476;2022-11-09T03:52:51;1.52;;;0.63;;
75167;SDS011;63748;48.088;11.476;2022-11-09T03:55:17;0.88;;;0.63;;
75167;SDS011;63748;48.088;11.476;2022-11-09T03:57:44;0.55;;;0.52;;
75167;SDS011;63748;48.088;11.476;2022-11-09T04:00:11;0.85;;;0.52;;
75167;SDS011;63748;48.088;11.476;2022-11-09T04:02:37;2.10;;;1.45;;
75167;SDS011;63748;48.088;11.476;2022-11-09T04:05:04;3.38;;;0.80;;
75167;SDS011;63748;48.088;11.476;2022-11-09T04:07:30;1.05;;;0.60;;
75167;SDS011;63748;48.088;11.476;2022-11-09T04:09:56;2.45;;;0.60;;
75167;SDS011;63748;48.088;11.476;2022-11-09T04:12:22;1.73;;;0.57;;
75167;SDS011;63748;48.088;11.476;2022-11-09T04:14:48;0.88;;;0.50;;
75167;SDS011;63748;48.088;11.476;2022-11-09T04:17:14;1.35;;;0.80;;
75167;SDS011;63748;48.088;11.476;2022-11-09T04:19:41;1.02;;;0.50;;
75167;SDS011;63748;48.088;11.476;2022-11-09T04:22:07;2.95;;;0.47;;
75167;SDS011;63748;48.088;11.476;2022-11-09T04:24:33;1.00;;;0.60;;
75167;SDS011;63748;48.088;11.476;2022-11-09T04:26:59;3.10;;;0.50;;
75167;SDS011;63748;48.088;11.476;2022-11-09T04:29:25;1.02;;;0.60;;
75167;SDS011;63748;48.088;11.476;2022-11-09T04:31:51;1.90;;;0.52;;
75167;SDS011;63748;48.088;11.476;2022-11-09T04:34:17;1.48;;;0.93;;
75167;SDS011;63748;48.088;11.476;2022-11-09T04:36:43;2.03;;;0.70;;
75167;SDS011;63748;48.088;11.476;2022-11-09T04:39:10;1.48;;;0.57;;
75167;SDS011;63748;48.088;11.476;2022-11-09T04:41:36;0.98;;;0.50;;
75167;SDS011;63748;48.088;11.476;2022-11-09T04:44:02;1.00;;;0.70;;
75167;SDS011;63748;48.088;11.476;2022-11-09T04:46:28;0.73;;;0.38;;
75167;SDS011;63748;48.088;11.476;2022-11-09T04:48:54;0.98;;;0.60;;
75167;SDS011;63748;48.088;11.476;2022-11-09T04:51:20;2.50;;;0.70;;
75167;SDS011;63748;48.088;11.476;2022-11-09T04:53:46;1.88;;;0.57;;
75167;SDS011;63748;48.088;11.476;2022-11-09T04:56:13;1.00;;;0.70;;
75167;SDS011;63748;48.088;11.476;2022-11-09T04:58:39;1.30;;;0.60;;
75167;SDS011;63748;48.088;11.476;2022-11-09T05:01:06;4.22;;;1.00;;
75167;SDS011;63748;48.088;11.476;2022-11-09T05:03:32;1.33;;;0.63;;
75167;SDS011;63748;48.088;11.476;2022-11-09T05:05:58;3.65;;;0.85;;
75167;SDS011;63748;48.088;11.476;2022-11-09T05:08:25;2.40;;;0.90;;
75167;SDS011;63748;48.088;11.476;2022-11-09T05:10:54;1.60;;;0.60;;
75167;SDS011;63748;48.088;11.476;2022-11-09T05:13:21;1.20;;;0.57;;
75167;SDS011;63748;48.088;11.476;2022-11-09T05:15:47;1.08;;;0.60;;
75167;SDS011;63748;48.088;11.476;2022-11-09T05:18:13;1.48;;;0.70;;
75167;SDS011;63748;48.088;11.476;2022-11-09T05:20:39;1.75;;;0.75;;
75167;SDS011;63748;48.088;11.476;2022-11-09T05:23:05;1.50;;;0.50;;
75167;SDS011;63748;48.088;11.476;2022-11-09T05:25:50;1.30;;;0.60;;
75167;SDS011;63748;48.088;11.476;2022-11-09T05:28:16;1.88;;;0.68;;
75167;SDS011;63748;48.088;11.476;2022-11-09T05:30:42;0.90;;;0.60;;
75167;SDS011;63748;48.088;11.476;2022-11-09T05:33:08;4.38;;;0.70;;
75167;SDS011;63748;48.088;11.476;2022-11-09T05:35:34;1.55;;;0.68;;
75167;SDS011;63748;48.088;11.476;2022-11-09T05:38:00;3.45;;;0.60;;
75167;SDS011;63748;48.088;11.476;2022-11-09T05:40:26;1.02;;;0.40;;
75167;SDS011;63748;48.088;11.476;2022-11-09T05:42:52;0.73;;;0.60;;
75167;SDS011;63748;48.088;11.476;2022-11-09T05:45:20;1.33;;;0.80;;
75167;SDS011;63748;48.088;11.476;2022-11-09T05:47:46;0.95;;;0.60;;
75167;SDS011;63748;48.088;11.476;2022-11-09T05:50:13;1.83;;;1.02;;
75167;SDS011;63748;48.088;11.476;2022-11-09T05:52:40;0.40;;;0.40;;
75167;SDS011;63748;48.088;11.476;2022-11-09T05:55:06;1.65;;;0.85;;
75167;SDS011;63748;48.088;11.476;2022-11-09T05:57:32;1.92;;;0.70;;
75167;SDS011;63748;48.088;11.476;2022-11-09T05:59:58;3.85;;;0.95;;
75167;SDS011;63748;48.088;11.476;2022-11-09T06:02:24;1.58;;;0.70;;
75167;SDS011;63748;48.088;11.476;2022-11-09T06:04:50;1.58;;;0.68;;
75167;SDS011;63748;48.088;11.476;2022-11-09T06:07:17;1.30;;;0.68;;
75167;SDS011;63748;48.088;11.476;2022-11-09T06:09:43;1.05;;;0.65;;
75167;SDS011;63748;48.088;11.476;2022-11-09T06:12:09;1.80;;;0.63;;
75167;SDS011;63748;48.088;11.476;2022-11-09T06:14:35;0.85;;;0.60;;
75167;SDS011;63748;48.088;11.476;2022-11-09T06:17:01;2.20;;;0.80;;
75167;SDS011;63748;48.088;11.476;2022-11-09T06:19:27;0.70;;;0.50;;
75167;SDS011;63748;48.088;11.476;2022-11-09T06:21:53;1.13;;;0.50;;
75167;SDS011;63748;48.088;11.476;2022-11-09T06:24:19;1.42;;;0.85;;
75167;SDS011;63748;48.088;11.476;2022-11-09T06:26:45;0.95;;;0.60;;
75167;SDS011;63748;48.088;11.476;2022-11-09T06:29:11;1.17;;;0.70;;
75167;SDS011;63748;48.088;11.476;2022-11-09T06:31:37;1.80;;;0.75;;
75167;SDS011;63748;48.088;11.476;2022-11-09T06:34:03;1.52;;;0.63;;
75167;SDS011;63748;48.088;11.476;2022-11-09T06:36:29;1.95;;;0.88;;
75167;SDS011;63748;48.088;11.476;2022-11-09T06:38:55;1.17;;;0.50;;
75167;SDS011;63748;48.088;11.476;2022-11-09T06:41:21;1.35;;;0.68;;
75167;SDS011;63748;48.088;11.476;2022-11-09T06:43:47;2.83;;;0.88;;
75167;SDS011;63748;48.088;11.476;2022-11-09T06:46:13;2.83;;;1.00;;
75167;SDS011;63748;48.088;11.476;2022-11-09T06:48:41;2.90;;;1.10;;
75167;SDS011;63748;48.088;11.476;2022-11-09T06:51:08;1.17;;;0.80;;
75167;SDS011;63748;48.088;11.476;2022-11-09T06:53:34;2.95;;;1.15;;
75167;SDS011;63748;48.088;11.476;2022-11-09T06:56:02;1.52;;;0.80;;
75167;SDS011;63748;48.088;11.476;2022-11-09T06:58:29;2.22;;;1.08;;
75167;SDS011;63748;48.088;11.476;2022-11-09T07:00:55;1.45;;;0.80;;
75167;SDS011;63748;48.088;11.476;2022-11-09T07:03:22;1.95;;;1.00;;
75167;SDS011;63748;48.088;11.476;2022-11-09T07:05:48;2.58;;;1.10;;
75167;SDS011;63748;48.088;11.476;2022-11-09T07:08:15;1.55;;;0.80;;
75167;SDS011;63748;48.088;11.476;2022-11-09T07:10:42;3.05;;;1.65;;
75167;SDS011;63748;48.088;11.476;2022-11-09T07:13:08;2.85;;;1.20;;
75167;SDS011;63748;48.088;11.476;2022-11-09T07:15:35;3.60;;;1.58;;
75167;SDS011;63748;48.088;11.476;2022-11-09T07:18:02;3.78;;;1.35;;
75167;SDS011;63748;48.088;11.476;2022-11-09T07:20:29;2.33;;;1.10;;
75167;SDS011;63748;48.088;11.476;2022-11-09T07:22:55;4.85;;;1.55;;
75167;SDS011;63748;48.088;11.476;2022-11-09T07:25:21;4.40;;;1.15;;
75167;SDS011;63748;48.088;11.476;2022-11-09T07:27:47;3.40;;;1.30;;
75167;SDS011;63748;48.088;11.476;2022-11-09T07:30:13;2.13;;;0.90;;
75167;SDS011;63748;48.088;11.476;2022-11-09T07:32:40;1.67;;;0.85;;
75167;SDS011;63748;48.088;11.476;2022-11-09T07:35:07;3.05;;;1.13;;
75167;SDS011;63748;48.088;11.476;2022-11-09T07:37:33;2.45;;;1.45;;
75167;SDS011;63748;48.088;11.476;2022-11-09T07:40:00;1.77;;;0.93;;
75167;SDS011;63748;48.088;11.476;2022-11-09T07:42:26;1.33;;;0.90;;
75167;SDS011;63748;48.088;11.476;2022-11-09T07:44:52;1.80;;;0.80;;
75167;SDS011;63748;48.088;11.476;2022-11-09T07:47:18;1.65;;;0.93;;
75167;SDS011;63748;48.088;11.476;2022-11-09T07:49:44;1.70;;;0.98;;
75167;SDS011;63748;48.088;11.476;2022-11-09T07:52:11;1.35;;;0.80;;
75167;SDS011;63748;48.088;11.476;2022-11-09T07:54:37;2.20;;;0.75;;
75167;SDS011;63748;48.088;11.476;2022-11-09T07:57:04;1.30;;;0.98;;
75167;SDS011;63748;48.088;11.476;2022-11-09T07:59:30;1.30;;;0.93;;
75167;SDS011;63748;48.088;11.476;2022-11-09T08:01:57;1.98;;;0.80;;
75167;SDS011;63748;48.088;11.476;2022-11-09T08:04:23;0.88;;;0.60;;
75167;SDS011;63748;48.088;11.476;2022-11-09T08:06:52;2.42;;;0.70;;
75167;SDS011;63748;48.088;11.476;2022-11-09T08:09:18;1.77;;;1.00;;
75167;SDS011;63748;48.088;11.476;2022-11-09T08:11:44;1.20;;;0.85;;
75167;SDS011;63748;48.088;11.476;2022-11-09T08:14:10;2.17;;;0.70;;
75167;SDS011;63748;48.088;11.476;2022-11-09T08:16:36;1.00;;;0.65;;
75167;SDS011;63748;48.088;11.476;2022-11-09T08:19:03;2.03;;;0.75;;
75167;SDS011;63748;48.088;11.476;2022-11-09T08:21:29;1.13;;;0.73;;
75167;SDS011;63748;48.088;11.476;2022-11-09T08:23:55;1.65;;;0.68;;
75167;SDS011;63748;48.088;11.476;2022-11-09T08:26:21;4.50;;;0.93;;
75167;SDS011;63748;48.088;11.476;2022-11-09T08:28:47;1.30;;;0.70;;
75167;SDS011;63748;48.088;11.476;2022-11-09T08:31:13;0.93;;;0.70;;
75167;SDS011;63748;48.088;11.476;2022-11-09T08:33:40;5.28;;;3.90;;
75167;SDS011;63748;48.088;11.476;2022-11-09T08:36:07;4.63;;;2.20;;
75167;SDS011;63748;48.088;11.476;2022-11-09T08:38:33;2.60;;;1.65;;
75167;SDS011;63748;48.088;11.476;2022-11-09T08:40:59;1.20;;;0.85;;
75167;SDS011;63748;48.088;11.476;2022-11-09T08:43:25;1.55;;;0.88;;
75167;SDS011;63748;48.088;11.476;2022-11-09T08:45:51;1.40;;;1.17;;
75167;SDS011;63748;48.088;11.476;2022-11-09T08:48:17;3.15;;;0.73;;
75167;SDS011;63748;48.088;11.476;2022-11-09T08:50:43;1.42;;;0.85;;
75167;SDS011;63748;48.088;11.476;2022-11-09T08:53:10;2.42;;;1.00;;
75167;SDS011;63748;48.088;11.476;2022-11-09T08:55:36;1.70;;;0.70;;
75167;SDS011;63748;48.088;11.476;2022-11-09T08:58:02;1.38;;;0.80;;
75167;SDS011;63748;48.088;11.476;2022-11-09T09:00:29;1.88;;;1.15;;
75167;SDS011;63748;48.088;11.476;2022-11-09T09:02:55;3.67;;;1.10;;
75167;SDS011;63748;48.088;11.476;2022-11-09T09:05:21;2.70;;;0.90;;
75167;SDS011;63748;48.088;11.476;2022-11-09T09:07:47;2.53;;;1.38;;
75167;SDS011;63748;48.088;11.476;2022-11-09T09:10:13;2.05;;;0.88;;
75167;SDS011;63748;48.088;11.476;2022-11-09T09:12:39;3.47;;;1.25;;
75167;SDS011;63748;48.088;11.476;2022-11-09T09:15:05;3.90;;;1.40;;
75167;SDS011;63748;48.088;11.476;2022-11-09T09:17:31;1.30;;;0.70;;
75167;SDS011;63748;48.088;11.476;2022-11-09T09:19:59;0.95;;;0.63;;
75167;SDS011;63748;48.088;11.476;2022-11-09T09:22:25;1.33;;;0.75;;
75167;SDS011;63748;48.088;11.476;2022-11-09T09:24:51;1.33;;;0.70;;
75167;SDS011;63748;48.088;11.476;2022-11-09T09:27:17;2.40;;;0.75;;
75167;SDS011;63748;48.088;11.476;2022-11-09T09:29:43;1.30;;;0.77;;
75167;SDS011;63748;48.088;11.476;2022-11-09T09:32:09;5.70;;;2.50;;
75167;SDS011;63748;48.088;11.476;2022-11-09T09:34:35;3.35;;;2.38;;
75167;SDS011;63748;48.088;11.476;2022-11-09T09:37:01;2.35;;;1.48;;
75167;SDS011;63748;48.088;11.476;2022-11-09T09:39:28;1.58;;;1.02;;
75167;SDS011;63748;48.088;11.476;2022-11-09T09:41:58;2.75;;;1.00;;
75167;SDS011;63748;48.088;11.476;2022-11-09T09:44:28;1.27;;;0.90;;
75167;SDS011;63748;48.088;11.476;2022-11-09T09:49:30;1.85;;;0.52;;
75167;SDS011;63748;48.088;11.476;2022-11-09T09:52:12;1.60;;;0.85;;
75167;SDS011;63748;48.088;11.476;2022-11-09T09:54:42;2.28;;;0.95;;
75167;SDS011;63748;48.088;11.476;2022-11-09T09:57:13;1.23;;;0.77;;
75167;SDS011;63748;48.088;11.476;2022-11-09T09:59:43;2.10;;;0.73;;
75167;SDS011;63748;48.088;11.476;2022-11-09T10:02:16;2.45;;;0.80;;
75167;SDS011;63748;48.088;11.476;2022-11-09T10:04:45;1.92;;;0.75;;
75167;SDS011;63748;48.088;11.476;2022-11-09T10:07:21;2.20;;;0.80;;
75167;SDS011;63748;48.088;11.476;2022-11-09T10:27:36;1.55;;;0.70;;
75167;SDS011;63748;48.088;11.476;2022-11-09T10:30:07;1.88;;;0.82;;
75167;SDS011;63748;48.088;11.476;2022-11-09T10:32:36;0.93;;;0.63;;
75167;SDS011;63748;48.088;11.476;2022-11-09T10:37:36;1.65;;;0.90;;
75167;SDS011;63748;48.088;11.476;2022-11-09T10:40:17;2.85;;;0.90;;
75167;SDS011;63748;48.088;11.476;2022-11-09T10:42:54;1.35;;;0.82;;
75167;SDS011;63748;48.088;11.476;2022-11-09T10:45:31;0.90;;;0.70;;
75167;SDS011;63748;48.088;11.476;2022-11-09T10:47:57;0.90;;;0.73;;
75167;SDS011;63748;48.088;11.476;2022-11-09T10:50:29;1.45;;;0.82;;
75167;SDS011;63748;48.088;11.476;2022-11-09T11:00:55;2.15;;;1.00;;
75167;SDS011;63748;48.088;11.476;2022-11-09T11:03:23;1.73;;;0.90;;
75167;SDS011;63748;48.088;11.476;2022-11-09T11:05:56;1.10;;;0.80;;
75167;SDS011;63748;48.088;11.476;2022-11-09T11:08:27;2.20;;;1.00;;
75167;SDS011;63748;48.088;11.476;2022-11-09T11:11:14;2.20;;;1.10;;
75167;SDS011;63748;48.088;11.476;2022-11-09T11:13:41;2.10;;;1.10;;
75167;SDS011;63748;48.088;11.476;2022-11-09T11:18:43;2.53;;;0.95;;
75167;SDS011;63748;48.088;11.476;2022-11-09T11:21:14;1.23;;;0.73;;
75167;SDS011;63748;48.088;11.476;2022-11-09T11:23:40;1.58;;;0.80;;
75167;SDS011;63748;48.088;11.476;2022-11-09T11:28:48;2.28;;;1.00;;
75167;SDS011;63748;48.088;11.476;2022-11-09T11:31:18;1.08;;;0.75;;
75167;SDS011;63748;48.088;11.476;2022-11-09T11:33:44;1.67;;;0.82;;
75167;SDS011;63748;48.088;11.476;2022-11-09T11:36:16;0.85;;;0.60;;
75167;SDS011;63748;48.088;11.476;2022-11-09T11:54:05;1.33;;;0.63;;
75167;SDS011;63748;48.088;11.476;2022-11-09T12:12:44;3.38;;;1.33;;
75167;SDS011;63748;48.088;11.476;2022-11-09T12:17:53;1.58;;;0.90;;
75167;SDS011;63748;48.088;11.476;2022-11-09T12:25:37;2.60;;;1.00;;
75167;SDS011;63748;48.088;11.476;2022-11-09T12:33:17;1.88;;;1.23;;
75167;SDS011;63748;48.088;11.476;2022-11-09T12:35:47;1.20;;;0.82;;
75167;SDS011;63748;48.088;11.476;2022-11-09T12:43:31;1.80;;;0.80;;
75167;SDS011;63748;48.088;11.476;2022-11-09T12:45:59;1.58;;;0.80;;
75167;SDS011;63748;48.088;11.476;2022-11-09T12:48:28;2.25;;;0.70;;
75167;SDS011;63748;48.088;11.476;2022-11-09T12:50:55;2.28;;;2.08;;
75167;SDS011;63748;48.088;11.476;2022-11-09T12:53:22;1.83;;;1.00;;
75167;SDS011;63748;48.088;11.476;2022-11-09T12:58:21;2.78;;;0.80;;
75167;SDS011;63748;48.088;11.476;2022-11-09T13:00:49;1.55;;;0.90;;
75167;SDS011;63748;48.088;11.476;2022-11-09T13:03:20;1.67;;;1.00;;
75167;SDS011;63748;48.088;11.476;2022-11-09T13:05:47;2.00;;;0.70;;
75167;SDS011;63748;48.088;11.476;2022-11-09T13:08:32;3.03;;;1.13;;
75167;SDS011;63748;48.088;11.476;2022-11-09T13:11:08;1.10;;;0.80;;
75167;SDS011;63748;48.088;11.476;2022-11-09T13:13:35;4.05;;;0.90;;
75167;SDS011;63748;48.088;11.476;2022-11-09T13:16:02;2.17;;;1.00;;
75167;SDS011;63748;48.088;11.476;2022-11-09T13:20:55;1.52;;;0.80;;
75167;SDS011;63748;48.088;11.476;2022-11-09T13:25:50;1.73;;;1.17;;
75167;SDS011;63748;48.088;11.476;2022-11-09T13:30:55;1.42;;;0.70;;
75167;SDS011;63748;48.088;11.476;2022-11-09T13:33:32;1.25;;;0.88;;
75167;SDS011;63748;48.088;11.476;2022-11-09T13:36:11;4.45;;;0.90;;
75167;SDS011;63748;48.088;11.476;2022-11-09T13:38:38;2.88;;;0.80;;
75167;SDS011;63748;48.088;11.476;2022-11-09T13:44:05;2.05;;;0.95;;
75167;SDS011;63748;48.088;11.476;2022-11-09T13:46:33;1.17;;;0.70;;
75167;SDS011;63748;48.088;11.476;2022-11-09T13:49:01;1.20;;;0.82;;
75167;SDS011;63748;48.088;11.476;2022-11-09T13:51:37;1.83;;;0.90;;
75167;SDS011;63748;48.088;11.476;2022-11-09T13:56:51;2.60;;;0.82;;
75167;SDS011;63748;48.088;11.476;2022-11-09T13:59:27;1.20;;;0.77;;
75167;SDS011;63748;48.088;11.476;2022-11-09T14:01:55;1.10;;;0.73;;
75167;SDS011;63748;48.088;11.476;2022-11-09T14:04:23;1.17;;;0.70;;
75167;SDS011;63748;48.088;11.476;2022-11-09T14:06:53;2.75;;;0.70;;
75167;SDS011;63748;48.088;11.476;2022-11-09T14:09:20;2.42;;;0.75;;
75167;SDS011;63748;48.088;11.476;2022-11-09T14:17:05;1.88;;;0.90;;
75167;SDS011;63748;48.088;11.476;2022-11-09T14:22:20;1.48;;;0.70;;
75167;SDS011;63748;48.088;11.476;2022-11-09T14:24:47;2.28;;;0.90;;
75167;SDS011;63748;48.088;11.476;2022-11-09T14:27:18;1.85;;;0.80;;
75167;SDS011;63748;48.088;11.476;2022-11-09T14:32:24;1.88;;;0.80;;
75167;SDS011;63748;48.088;11.476;2022-11-09T14:34:50;2.20;;;0.70;;
75167;SDS011;63748;48.088;11.476;2022-11-09T14:37:16;1.10;;;0.70;;
75167;SDS011;63748;48.088;11.476;2022-11-09T14:39:46;1.85;;;0.98;;
75167;SDS011;63748;48.088;11.476;2022-11-09T14:42:16;1.40;;;0.73;;
75167;SDS011;63748;48.088;11.476;2022-11-09T14:44:43;2.70;;;0.77;;
75167;SDS011;63748;48.088;11.476;2022-11-09T14:47:15;2.65;;;0.77;;
75167;SDS011;63748;48.088;11.476;2022-11-09T14:49:41;1.95;;;0.70;;
75167;SDS011;63748;48.088;11.476;2022-11-09T14:52:11;1.30;;;0.80;;
75167;SDS011;63748;48.088;11.476;2022-11-09T14:54:37;1.77;;;0.98;;
75167;SDS011;63748;48.088;11.476;2022-11-09T14:57:04;1.90;;;0.80;;
75167;SDS011;63748;48.088;11.476;2022-11-09T14:59:31;1.23;;;0.88;;
75167;SDS011;63748;48.088;11.476;2022-11-09T15:01:59;1.58;;;0.63;;
75167;SDS011;63748;48.088;11.476;2022-11-09T15:04:26;2.17;;;0.90;;
75167;SDS011;63748;48.088;11.476;2022-11-09T15:06:53;1.30;;;0.60;;
75167;SDS011;63748;48.088;11.476;2022-11-09T15:09:26;2.75;;;1.02;;
75167;SDS011;63748;48.088;11.476;2022-11-09T15:11:56;4.65;;;2.05;;
75167;SDS011;63748;48.088;11.476;2022-11-09T15:14:24;4.30;;;1.98;;
75167;SDS011;63748;48.088;11.476;2022-11-09T15:16:55;5.32;;;1.98;;
75167;SDS011;63748;48.088;11.476;2022-11-09T15:19:26;5.13;;;2.05;;
75167;SDS011;63748;48.088;11.476;2022-11-09T15:21:52;3.95;;;1.67;;
75167;SDS011;63748;48.088;11.476;2022-11-09T15:24:19;2.17;;;1.15;;
75167;SDS011;63748;48.088;11.476;2022-11-09T15:26:46;2.53;;;1.23;;
75167;SDS011;63748;48.088;11.476;2022-11-09T15:29:45;3.63;;;2.17;;
75167;SDS011;63748;48.088;11.476;2022-11-09T15:34:52;7.97;;;3.10;;
75167;SDS011;63748;48.088;11.476;2022-11-09T15:39:47;5.82;;;2.72;;
75167;SDS011;63748;48.088;11.476;2022-11-09T15:42:13;5.22;;;3.15;;
75167;SDS011;63748;48.088;11.476;2022-11-09T15:44:39;4.65;;;2.75;;
75167;SDS011;63748;48.088;11.476;2022-11-09T15:47:14;4.18;;;2.83;;
75167;SDS011;63748;48.088;11.476;2022-11-09T15:49:43;9.02;;;5.03;;
75167;SDS011;63748;48.088;11.476;2022-11-09T15:52:10;9.95;;;3.88;;
75167;SDS011;63748;48.088;11.476;2022-11-09T15:54:37;9.60;;;4.93;;
75167;SDS011;63748;48.088;11.476;2022-11-09T15:57:03;6.47;;;3.80;;
75167;SDS011;63748;48.088;11.476;2022-11-09T15:59:29;7.90;;;3.75;;
75167;SDS011;63748;48.088;11.476;2022-11-09T16:01:55;10.95;;;4.55;;
75167;SDS011;63748;48.088;11.476;2022-11-09T16:04:21;7.35;;;4.20;;
75167;SDS011;63748;48.088;11.476;2022-11-09T16:06:47;6.47;;;4.47;;
75167;SDS011;63748;48.088;11.476;2022-11-09T16:09:14;11.90;;;5.15;;
75167;SDS011;63748;48.088;11.476;2022-11-09T16:11:40;11.07;;;5.82;;
75167;SDS011;63748;48.088;11.476;2022-11-09T16:14:06;9.32;;;5.55;;
75167;SDS011;63748;48.088;11.476;2022-11-09T16:16:32;8.75;;;5.25;;
75167;SDS011;63748;48.088;11.476;2022-11-09T16:18:58;16.48;;;7.05;;
75167;SDS011;63748;48.088;11.476;2022-11-09T16:21:24;8.05;;;5.43;;
75167;SDS011;63748;48.088;11.476;2022-11-09T16:23:50;9.85;;;4.50;;
75167;SDS011;63748;48.088;11.476;2022-11-09T16:26:17;11.93;;;6.65;;
75167;SDS011;63748;48.088;11.476;2022-11-09T16:28:44;19.17;;;7.70;;
75167;SDS011;63748;48.088;11.476;2022-11-09T16:31:10;26.48;;;11.52;;
75167;SDS011;63748;48.088;11.476;2022-11-09T16:33:37;19.77;;;9.75;;
75167;SDS011;63748;48.088;11.476;2022-11-09T16:36:14;35.33;;;15.57;;
75167;SDS011;63748;48.088;11.476;2022-11-09T16:38:43;39.70;;;19.83;;